Crown Of Scandinavia — OXRA6 — position and weather

sailwx.info

Track history (hours):
 
Tides and Currents Weather Stations Pressure Air Temp Water Temp Dewpoint Dewpoint Depression Visibility Wind Speed Wind Dir Waves Ship Positions

Crown Of Scandinavia

Last reported at 2017-Feb-22 03:34 UTC. Time now 2017-Feb-22 04:24 UTC.
Position N 58°39' E 010°46'.

Length 171 m; draft 6.3 m.

Type: Ship. MMSI: 219592000.

Date/timePositionNaut miles runAvg speedWind from/ knotsBaromVisibWave heightAir tempDewpointWater temp
2017-Feb-22 03:34N 58°39' E 010°46'1717.4
2017-Feb-22 02:33N 58°23' E 010°56'1818.0
2017-Feb-22 01:32N 58°05' E 011°07'1717.4
2017-Feb-22 00:33N 57°49' E 011°17'1716.7
2017-Feb-21 23:33N 57°33' E 011°26'1616.1
2017-Feb-21 22:33N 57°18' E 011°34'6816.6
2017-Feb-21 18:27N 56°15' E 012°24'1314.9
2017-Feb-21 17:33N 56°04' E 012°38'1413.5
2017-Feb-21 16:33N 55°51' E 012°45'1010.3
2017-Feb-21 15:33N 55°42' E 012°36'0 0.0
2017-Feb-21 14:33N 55°42' E 012°36'0 0.0
2017-Feb-21 13:33N 55°42' E 012°36'0 0.0
2017-Feb-21 12:33N 55°42' E 012°36'0 0.0
2017-Feb-21 11:33N 55°42' E 012°36'0 0.0
2017-Feb-21 10:33N 55°42' E 012°36'0 0.0
2017-Feb-21 09:33N 55°42' E 012°36'0 0.2
2017-Feb-21 08:33N 55°42' E 012°36'1211.9
2017-Feb-21 07:34N 55°54' E 012°40'1716.6
2017-Feb-21 06:33N 56°09' E 012°28'6616.4
2017-Feb-21 02:33N 57°12' E 011°53'1717.3
2017-Feb-21 01:33N 57°27' E 011°36'1716.7
2017-Feb-21 00:33N 57°38' E 011°13'1717.4
2017-Feb-20 23:33N 57°55' E 011°02'1716.8
2017-Feb-20 22:33N 58°10' E 010°50'1615.6
2017-Feb-20 21:33N 58°25' E 010°41'1616.1
2017-Feb-20 20:33N 58°41' E 010°36'1716.7
2017-Feb-20 19:33N 58°58' E 010°36'1616.3
2017-Feb-20 18:33N 59°14' E 010°37'1716.6
2017-Feb-20 17:33N 59°31' E 010°35'1313.3
2017-Feb-20 16:34N 59°44' E 010°34'1211.6
2017-Feb-20 15:33N 59°54' E 010°45'0 0.1
2017-Feb-20 14:31N 59°54' E 010°45'0 0.0
2017-Feb-20 13:31N 59°54' E 010°45'0 0.0
2017-Feb-20 12:31N 59°54' E 010°45'0 0.0
2017-Feb-20 11:31N 59°54' E 010°45'0 0.0
2017-Feb-20 10:31N 59°54' E 010°45'0 0.0
2017-Feb-20 09:31N 59°54' E 010°45'0 0.4
2017-Feb-20 08:33N 59°54' E 010°44'1212.1
2017-Feb-20 07:33N 59°43' E 010°35'1413.9
2017-Feb-20 06:33N 59°29' E 010°34'1616.4
2017-Feb-20 05:33N 59°13' E 010°39'1716.9
2017-Feb-20 04:33N 58°56' E 010°41'1716.5
2017-Feb-20 03:33N 58°40' E 010°48'1716.7
2017-Feb-20 02:33N 58°24' E 010°58'1716.5
2017-Feb-20 01:34N 58°08' E 011°09'1616.4
2017-Feb-20 00:34N 57°53' E 011°19'1615.9
2017-Feb-19 23:34N 57°37' E 011°24'1616.0
2017-Feb-19 22:33N 57°22' E 011°33'1716.6
2017-Feb-19 21:32N 57°06' E 011°41'5716.5
2017-Feb-19 18:04N 56°14' E 012°26'815.8
2017-Feb-19 17:33N 56°07' E 012°33'1414.3
2017-Feb-19 16:33N 55°54' E 012°44'1312.8
2017-Feb-19 15:34N 55°42' E 012°36'0 0.0
2017-Feb-19 14:31N 55°42' E 012°36'0 0.0
2017-Feb-19 13:31N 55°42' E 012°36'0 0.0
2017-Feb-19 12:31N 55°42' E 012°36'0 0.0
2017-Feb-19 11:31N 55°42' E 012°36'0 0.0
2017-Feb-19 10:31N 55°42' E 012°36'0 0.0
2017-Feb-19 09:31N 55°42' E 012°36'0 0.1
2017-Feb-19 08:32N 55°42' E 012°36'1211.8
2017-Feb-19 07:33N 55°54' E 012°40'1615.8
2017-Feb-19 06:33N 56°08' E 012°30'5917.3
2017-Feb-19 03:08N 57°05' E 011°57'1017.6
2017-Feb-19 02:33N 57°14' E 011°52'1817.8
2017-Feb-19 01:33N 57°30' E 011°35'1818.0
2017-Feb-19 00:33N 57°45' E 011°18'1716.9
2017-Feb-18 23:33N 58°01' E 011°05'1716.7
2017-Feb-18 22:33N 58°16' E 010°50'1616.2
2017-Feb-18 21:33N 58°30' E 010°37'1615.7
2017-Feb-18 20:33N 58°46' E 010°35'1515.5
2017-Feb-18 19:33N 59°01' E 010°37'1615.5
2017-Feb-18 18:33N 59°17' E 010°36'1615.8
2017-Feb-18 17:33N 59°32' E 010°36'1212.3
2017-Feb-18 16:33N 59°45' E 010°33'1111.1
2017-Feb-18 15:33N 59°54' E 010°45'0 0.1
2017-Feb-18 14:31N 59°54' E 010°45'0 0.0
2017-Feb-18 13:31N 59°54' E 010°45'0 0.0
2017-Feb-18 12:31N 59°54' E 010°45'0 0.0
2017-Feb-18 11:31N 59°54' E 010°45'0 0.0
2017-Feb-18 10:31N 59°54' E 010°45'0 0.0
2017-Feb-18 09:31N 59°54' E 010°45'0 0.1
2017-Feb-18 08:33N 59°54' E 010°45'1212.4
2017-Feb-18 07:33N 59°43' E 010°35'1413.6
2017-Feb-18 06:33N 59°29' E 010°35'1615.8
2017-Feb-18 05:33N 59°14' E 010°38'1716.6
2017-Feb-18 04:33N 58°57' E 010°43'1716.8
2017-Feb-18 03:33N 58°41' E 010°49'1716.8
2017-Feb-18 02:33N 58°24' E 010°54'1717.0
2017-Feb-18 01:33N 58°08' E 011°03'1716.8
2017-Feb-18 00:33N 57°52' E 011°13'1616.4
2017-Feb-17 23:33N 57°36' E 011°23'1716.6
2017-Feb-17 22:33N 57°21' E 011°35'1716.8
2017-Feb-17 21:33N 57°05' E 011°43'2116.8
2017-Feb-17 20:18N 56°46' E 011°60'3516.5
2017-Feb-17 18:11N 56°14' E 012°26'1016.2
2017-Feb-17 17:33N 56°05' E 012°36'1414.4
2017-Feb-17 16:34N 55°52' E 012°45'1110.9
2017-Feb-17 15:33N 55°42' E 012°36'0 0.0
2017-Feb-17 14:31N 55°42' E 012°36'0 0.0
2017-Feb-17 13:31N 55°42' E 012°36'0 0.0
2017-Feb-17 12:31N 55°42' E 012°36'0 0.0
2017-Feb-17 11:31N 55°42' E 012°36'0 0.0
2017-Feb-17 10:31N 55°42' E 012°36'0 0.0
2017-Feb-17 09:31N 55°42' E 012°36'0 0.2
2017-Feb-17 08:34N 55°42' E 012°36'1211.6
2017-Feb-17 07:33N 55°54' E 012°40'1514.7
2017-Feb-17 06:33N 56°07' E 012°30'1715.9
2017-Feb-17 05:31N 56°23' E 012°20'5316.5
2017-Feb-17 02:18N 57°14' E 011°52'1216.4
2017-Feb-17 01:34N 57°25' E 011°41'1717.0
2017-Feb-17 00:34N 57°40' E 011°27'1817.6
2017-Feb-16 23:33N 57°57' E 011°16'1716.9
2017-Feb-16 22:33N 58°13' E 011°06'1717.2
2017-Feb-16 21:34N 58°28' E 010°54'1716.6
2017-Feb-16 20:33N 58°44' E 010°44'1716.6
2017-Feb-16 19:34N 59°01' E 010°41'1716.9
2017-Feb-16 18:33N 59°17' E 010°36'1716.6
2017-Feb-16 17:34N 59°34' E 010°37'1515.0
2017-Feb-16 16:33N 59°49' E 010°34'7 7.3
2017-Feb-16 15:33N 59°54' E 010°45'0 0.0
2017-Feb-16 14:34N 59°54' E 010°45'0 0.0
2017-Feb-16 13:31N 59°54' E 010°45'0 0.0
2017-Feb-16 12:34N 59°54' E 010°45'0 0.0
2017-Feb-16 11:34N 59°54' E 010°45'0 0.0
2017-Feb-16 10:34N 59°54' E 010°45'0 0.0
2017-Feb-16 09:31N 59°54' E 010°45'0 0.1
2017-Feb-16 08:34N 59°54' E 010°45'1312.5
2017-Feb-16 07:33N 59°42' E 010°36'1313.4
2017-Feb-16 06:34N 59°29' E 010°35'1515.1
2017-Feb-16 05:33N 59°14' E 010°39'1616.1
2017-Feb-16 04:33N 58°58' E 010°43'1716.8
2017-Feb-16 03:33N 58°42' E 010°49'1717.0
2017-Feb-16 02:33N 58°25' E 010°55'1616.5
2017-Feb-16 01:33N 58°09' E 011°04'1716.7
2017-Feb-16 00:34N 57°53' E 011°14'1616.5
2017-Feb-15 23:34N 57°38' E 011°24'1616.2
2017-Feb-15 22:33N 57°22' E 011°32'1716.4
2017-Feb-15 21:32N 57°06' E 011°41'1716.0
2017-Feb-15 20:30N 56°51' E 011°56'1515.9
2017-Feb-15 19:33N 56°38' E 012°08'1916.0
2017-Feb-15 18:21N 56°20' E 012°21'1316.3
2017-Feb-15 17:33N 56°08' E 012°30'1615.9
2017-Feb-15 16:33N 55°54' E 012°44'1313.2
2017-Feb-15 15:33N 55°42' E 012°36'0 0.0
2017-Feb-15 14:31N 55°42' E 012°36'0 0.0
2017-Feb-15 13:31N 55°42' E 012°36'0 0.0
2017-Feb-15 12:31N 55°42' E 012°36'0 0.0
2017-Feb-15 11:31N 55°42' E 012°36'0 0.0
2017-Feb-15 10:31N 55°42' E 012°36'0 0.0
2017-Feb-15 09:31N 55°42' E 012°36'0 0.3
2017-Feb-15 08:34N 55°42' E 012°36'1211.6
2017-Feb-15 07:34N 55°54' E 012°39'1414.4
2017-Feb-15 06:34N 56°07' E 012°31'1616.0
2017-Feb-15 05:34N 56°22' E 012°21'1716.9
2017-Feb-15 04:34N 56°38' E 012°12'1716.7
2017-Feb-15 03:34N 56°54' E 012°03'1716.6
2017-Feb-15 02:33N 57°10' E 011°54'1716.6
2017-Feb-15 01:34N 57°25' E 011°38'1717.0
2017-Feb-15 00:34N 57°39' E 011°20'1716.9
2017-Feb-14 23:33N 57°53' E 011°04'1716.9
2017-Feb-14 22:33N 58°09' E 010°52'1616.6
2017-Feb-14 21:34N 58°24' E 010°41'1716.7
2017-Feb-14 20:34N 58°41' E 010°36'1717.1
2017-Feb-14 19:34N 58°58' E 010°36'1716.9
2017-Feb-14 18:34N 59°15' E 010°37'1616.4
2017-Feb-14 17:33N 59°31' E 010°35'1313.4
2017-Feb-14 16:34N 59°45' E 010°33'1111.2
2017-Feb-14 15:33N 59°54' E 010°45'0 0.0
2017-Feb-14 14:33N 59°54' E 010°45'0 0.0
2017-Feb-14 13:33N 59°54' E 010°45'0 0.0
2017-Feb-14 12:33N 59°54' E 010°45'0 0.0
2017-Feb-14 11:33N 59°54' E 010°45'0 0.0
2017-Feb-14 10:33N 59°54' E 010°45'0 0.0
2017-Feb-14 09:33N 59°54' E 010°45'0 0.0
2017-Feb-14 08:33N 59°54' E 010°45'1211.7
2017-Feb-14 07:34N 59°44' E 010°35'1312.9
2017-Feb-14 06:33N 59°31' E 010°36'1615.9
2017-Feb-14 05:34N 59°15' E 010°38'1616.5
2017-Feb-14 04:33N 58°59' E 010°36'1716.5
2017-Feb-14 03:33N 58°42' E 010°35'1716.7
2017-Feb-14 02:33N 58°26' E 010°41'1716.9
2017-Feb-14 01:33N 58°10' E 010°53'1716.8
2017-Feb-14 00:33N 57°54' E 011°03'1716.5
2017-Feb-13 23:33N 57°39' E 011°14'1716.8
2017-Feb-13 22:33N 57°24' E 011°29'1716.8
2017-Feb-13 21:33N 57°08' E 011°40'1616.1
2017-Feb-13 20:33N 56°54' E 011°53'1615.8
2017-Feb-13 19:33N 56°39' E 012°06'1615.9
2017-Feb-13 18:33N 56°25' E 012°17'1616.3
2017-Feb-13 17:33N 56°10' E 012°29'1616.4
2017-Feb-13 16:33N 55°56' E 012°44'1414.2
2017-Feb-13 15:34N 55°42' E 012°36'0 0.4
2017-Feb-13 14:31N 55°42' E 012°36'0 0.0
2017-Feb-13 13:31N 55°42' E 012°36'0 0.0
2017-Feb-13 12:31N 55°42' E 012°36'0 0.0
2017-Feb-13 11:31N 55°42' E 012°36'0 0.0
2017-Feb-13 10:31N 55°42' E 012°36'0 0.0
2017-Feb-13 09:31N 55°42' E 012°36'0 0.1
2017-Feb-13 08:33N 55°42' E 012°36'1110.6
2017-Feb-13 07:34N 55°53' E 012°40'1413.5
2017-Feb-13 06:33N 56°06' E 012°34'1414.3
2017-Feb-13 05:34N 56°19' E 012°23'6315.8
2017-Feb-13 01:34N 57°19' E 011°47'1616.2
2017-Feb-13 00:33N 57°33' E 011°32'1717.1
2017-Feb-12 23:33N 57°49' E 011°21'1717.1
2017-Feb-12 22:33N 58°05' E 011°10'1717.0
2017-Feb-12 21:33N 58°21' E 010°59'1717.1
2017-Feb-12 20:34N 58°37' E 010°48'1717.0
2017-Feb-12 19:33N 58°54' E 010°42'1717.0
2017-Feb-12 18:33N 59°11' E 010°38'1616.4
2017-Feb-12 17:33N 59°27' E 010°33'1414.3
2017-Feb-12 16:33N 59°41' E 010°36'1313.2
2017-Feb-12 15:33N 59°54' E 010°43'1 0.7
2017-Feb-12 14:32N 59°54' E 010°45'0 0.0
2017-Feb-12 13:32N 59°54' E 010°45'0 0.0
2017-Feb-12 12:32N 59°54' E 010°45'0 0.0
2017-Feb-12 11:32N 59°54' E 010°45'0 0.0
2017-Feb-12 10:29N 59°54' E 010°45'0 0.0
2017-Feb-12 09:32N 59°54' E 010°45'0 0.0
2017-Feb-12 08:32N 59°54' E 010°45'1010.8
2017-Feb-12 07:33N 59°45' E 010°34'1313.4
2017-Feb-12 06:34N 59°32' E 010°36'1514.8
2017-Feb-12 05:34N 59°17' E 010°37'1616.2
2017-Feb-12 04:33N 59°01' E 010°42'  
Track history (hours):
 
Tides and Currents Weather Stations Pressure Air Temp Water Temp Dewpoint Dewpoint Depression Visibility Wind Speed Wind Dir Waves Ship Positions

Crown Of Scandinavia

Last reported at 2017-Feb-22 03:34 UTC. Time now 2017-Feb-22 04:24 UTC.
Position N 58°39' E 010°46'.

Length 171 m; draft 6.3 m.

Type: Ship. MMSI: 219592000.

Date/timePositionNaut miles runAvg speedWind from/ knotsBaromVisibWave heightAir tempDewpointWater temp
2017-Feb-22 03:34N 58°39' E 010°46'1717.4
2017-Feb-22 02:33N 58°23' E 010°56'1818.0
2017-Feb-22 01:32N 58°05' E 011°07'1717.4
2017-Feb-22 00:33N 57°49' E 011°17'1716.7
2017-Feb-21 23:33N 57°33' E 011°26'1616.1
2017-Feb-21 22:33N 57°18' E 011°34'6816.6
2017-Feb-21 18:27N 56°15' E 012°24'1314.9
2017-Feb-21 17:33N 56°04' E 012°38'1413.5
2017-Feb-21 16:33N 55°51' E 012°45'1010.3
2017-Feb-21 15:33N 55°42' E 012°36'0 0.0
2017-Feb-21 14:33N 55°42' E 012°36'0 0.0
2017-Feb-21 13:33N 55°42' E 012°36'0 0.0
2017-Feb-21 12:33N 55°42' E 012°36'0 0.0
2017-Feb-21 11:33N 55°42' E 012°36'0 0.0
2017-Feb-21 10:33N 55°42' E 012°36'0 0.0
2017-Feb-21 09:33N 55°42' E 012°36'0 0.2
2017-Feb-21 08:33N 55°42' E 012°36'1211.9
2017-Feb-21 07:34N 55°54' E 012°40'1716.6
2017-Feb-21 06:33N 56°09' E 012°28'6616.4
2017-Feb-21 02:33N 57°12' E 011°53'1717.3
2017-Feb-21 01:33N 57°27' E 011°36'1716.7
2017-Feb-21 00:33N 57°38' E 011°13'1717.4
2017-Feb-20 23:33N 57°55' E 011°02'1716.8
2017-Feb-20 22:33N 58°10' E 010°50'1615.6
2017-Feb-20 21:33N 58°25' E 010°41'1616.1
2017-Feb-20 20:33N 58°41' E 010°36'1716.7
2017-Feb-20 19:33N 58°58' E 010°36'1616.3
2017-Feb-20 18:33N 59°14' E 010°37'1716.6
2017-Feb-20 17:33N 59°31' E 010°35'1313.3
2017-Feb-20 16:34N 59°44' E 010°34'1211.6
2017-Feb-20 15:33N 59°54' E 010°45'0 0.1
2017-Feb-20 14:31N 59°54' E 010°45'0 0.0
2017-Feb-20 13:31N 59°54' E 010°45'0 0.0
2017-Feb-20 12:31N 59°54' E 010°45'0 0.0
2017-Feb-20 11:31N 59°54' E 010°45'0 0.0
2017-Feb-20 10:31N 59°54' E 010°45'0 0.0
2017-Feb-20 09:31N 59°54' E 010°45'0 0.4
2017-Feb-20 08:33N 59°54' E 010°44'1212.1
2017-Feb-20 07:33N 59°43' E 010°35'1413.9
2017-Feb-20 06:33N 59°29' E 010°34'1616.4
2017-Feb-20 05:33N 59°13' E 010°39'1716.9
2017-Feb-20 04:33N 58°56' E 010°41'1716.5
2017-Feb-20 03:33N 58°40' E 010°48'1716.7
2017-Feb-20 02:33N 58°24' E 010°58'1716.5
2017-Feb-20 01:34N 58°08' E 011°09'1616.4
2017-Feb-20 00:34N 57°53' E 011°19'1615.9
2017-Feb-19 23:34N 57°37' E 011°24'1616.0
2017-Feb-19 22:33N 57°22' E 011°33'1716.6
2017-Feb-19 21:32N 57°06' E 011°41'5716.5
2017-Feb-19 18:04N 56°14' E 012°26'815.8
2017-Feb-19 17:33N 56°07' E 012°33'1414.3
2017-Feb-19 16:33N 55°54' E 012°44'1312.8
2017-Feb-19 15:34N 55°42' E 012°36'0 0.0
2017-Feb-19 14:31N 55°42' E 012°36'0 0.0
2017-Feb-19 13:31N 55°42' E 012°36'0 0.0
2017-Feb-19 12:31N 55°42' E 012°36'0 0.0
2017-Feb-19 11:31N 55°42' E 012°36'0 0.0
2017-Feb-19 10:31N 55°42' E 012°36'0 0.0
2017-Feb-19 09:31N 55°42' E 012°36'0 0.1
2017-Feb-19 08:32N 55°42' E 012°36'1211.8
2017-Feb-19 07:33N 55°54' E 012°40'1615.8
2017-Feb-19 06:33N 56°08' E 012°30'5917.3
2017-Feb-19 03:08N 57°05' E 011°57'1017.6
2017-Feb-19 02:33N 57°14' E 011°52'1817.8
2017-Feb-19 01:33N 57°30' E 011°35'1818.0
2017-Feb-19 00:33N 57°45' E 011°18'1716.9
2017-Feb-18 23:33N 58°01' E 011°05'1716.7
2017-Feb-18 22:33N 58°16' E 010°50'1616.2
2017-Feb-18 21:33N 58°30' E 010°37'1615.7
2017-Feb-18 20:33N 58°46' E 010°35'1515.5
2017-Feb-18 19:33N 59°01' E 010°37'1615.5
2017-Feb-18 18:33N 59°17' E 010°36'1615.8
2017-Feb-18 17:33N 59°32' E 010°36'1212.3
2017-Feb-18 16:33N 59°45' E 010°33'1111.1
2017-Feb-18 15:33N 59°54' E 010°45'0 0.1
2017-Feb-18 14:31N 59°54' E 010°45'0 0.0
2017-Feb-18 13:31N 59°54' E 010°45'0 0.0
2017-Feb-18 12:31N 59°54' E 010°45'0 0.0
2017-Feb-18 11:31N 59°54' E 010°45'0 0.0
2017-Feb-18 10:31N 59°54' E 010°45'0 0.0
2017-Feb-18 09:31N 59°54' E 010°45'0 0.1
2017-Feb-18 08:33N 59°54' E 010°45'1212.4
2017-Feb-18 07:33N 59°43' E 010°35'1413.6
2017-Feb-18 06:33N 59°29' E 010°35'1615.8
2017-Feb-18 05:33N 59°14' E 010°38'1716.6
2017-Feb-18 04:33N 58°57' E 010°43'1716.8
2017-Feb-18 03:33N 58°41' E 010°49'1716.8
2017-Feb-18 02:33N 58°24' E 010°54'1717.0
2017-Feb-18 01:33N 58°08' E 011°03'1716.8
2017-Feb-18 00:33N 57°52' E 011°13'1616.4
2017-Feb-17 23:33N 57°36' E 011°23'1716.6
2017-Feb-17 22:33N 57°21' E 011°35'1716.8
2017-Feb-17 21:33N 57°05' E 011°43'2116.8
2017-Feb-17 20:18N 56°46' E 011°60'3516.5
2017-Feb-17 18:11N 56°14' E 012°26'1016.2
2017-Feb-17 17:33N 56°05' E 012°36'1414.4
2017-Feb-17 16:34N 55°52' E 012°45'1110.9
2017-Feb-17 15:33N 55°42' E 012°36'0 0.0
2017-Feb-17 14:31N 55°42' E 012°36'0 0.0
2017-Feb-17 13:31N 55°42' E 012°36'0 0.0
2017-Feb-17 12:31N 55°42' E 012°36'0 0.0
2017-Feb-17 11:31N 55°42' E 012°36'0 0.0
2017-Feb-17 10:31N 55°42' E 012°36'0 0.0
2017-Feb-17 09:31N 55°42' E 012°36'0 0.2
2017-Feb-17 08:34N 55°42' E 012°36'1211.6
2017-Feb-17 07:33N 55°54' E 012°40'1514.7
2017-Feb-17 06:33N 56°07' E 012°30'1715.9
2017-Feb-17 05:31N 56°23' E 012°20'5316.5
2017-Feb-17 02:18N 57°14' E 011°52'1216.4
2017-Feb-17 01:34N 57°25' E 011°41'1717.0
2017-Feb-17 00:34N 57°40' E 011°27'1817.6
2017-Feb-16 23:33N 57°57' E 011°16'1716.9
2017-Feb-16 22:33N 58°13' E 011°06'1717.2
2017-Feb-16 21:34N 58°28' E 010°54'1716.6
2017-Feb-16 20:33N 58°44' E 010°44'1716.6
2017-Feb-16 19:34N 59°01' E 010°41'1716.9
2017-Feb-16 18:33N 59°17' E 010°36'1716.6
2017-Feb-16 17:34N 59°34' E 010°37'1515.0
2017-Feb-16 16:33N 59°49' E 010°34'7 7.3
2017-Feb-16 15:33N 59°54' E 010°45'0 0.0
2017-Feb-16 14:34N 59°54' E 010°45'0 0.0
2017-Feb-16 13:31N 59°54' E 010°45'0 0.0
2017-Feb-16 12:34N 59°54' E 010°45'0 0.0
2017-Feb-16 11:34N 59°54' E 010°45'0 0.0
2017-Feb-16 10:34N 59°54' E 010°45'0 0.0
2017-Feb-16 09:31N 59°54' E 010°45'0 0.1
2017-Feb-16 08:34N 59°54' E 010°45'1312.5
2017-Feb-16 07:33N 59°42' E 010°36'1313.4
2017-Feb-16 06:34N 59°29' E 010°35'1515.1
2017-Feb-16 05:33N 59°14' E 010°39'1616.1
2017-Feb-16 04:33N 58°58' E 010°43'1716.8
2017-Feb-16 03:33N 58°42' E 010°49'1717.0
2017-Feb-16 02:33N 58°25' E 010°55'1616.5
2017-Feb-16 01:33N 58°09' E 011°04'1716.7
2017-Feb-16 00:34N 57°53' E 011°14'1616.5
2017-Feb-15 23:34N 57°38' E 011°24'1616.2
2017-Feb-15 22:33N 57°22' E 011°32'1716.4
2017-Feb-15 21:32N 57°06' E 011°41'1716.0
2017-Feb-15 20:30N 56°51' E 011°56'1515.9
2017-Feb-15 19:33N 56°38' E 012°08'1916.0
2017-Feb-15 18:21N 56°20' E 012°21'1316.3
2017-Feb-15 17:33N 56°08' E 012°30'1615.9
2017-Feb-15 16:33N 55°54' E 012°44'1313.2
2017-Feb-15 15:33N 55°42' E 012°36'0 0.0
2017-Feb-15 14:31N 55°42' E 012°36'0 0.0
2017-Feb-15 13:31N 55°42' E 012°36'0 0.0
2017-Feb-15 12:31N 55°42' E 012°36'0 0.0
2017-Feb-15 11:31N 55°42' E 012°36'0 0.0
2017-Feb-15 10:31N 55°42' E 012°36'0 0.0
2017-Feb-15 09:31N 55°42' E 012°36'0 0.3
2017-Feb-15 08:34N 55°42' E 012°36'1211.6
2017-Feb-15 07:34N 55°54' E 012°39'1414.4
2017-Feb-15 06:34N 56°07' E 012°31'1616.0
2017-Feb-15 05:34N 56°22' E 012°21'1716.9
2017-Feb-15 04:34N 56°38' E 012°12'1716.7
2017-Feb-15 03:34N 56°54' E 012°03'1716.6
2017-Feb-15 02:33N 57°10' E 011°54'1716.6
2017-Feb-15 01:34N 57°25' E 011°38'1717.0
2017-Feb-15 00:34N 57°39' E 011°20'1716.9
2017-Feb-14 23:33N 57°53' E 011°04'1716.9
2017-Feb-14 22:33N 58°09' E 010°52'1616.6
2017-Feb-14 21:34N 58°24' E 010°41'1716.7
2017-Feb-14 20:34N 58°41' E 010°36'1717.1
2017-Feb-14 19:34N 58°58' E 010°36'1716.9
2017-Feb-14 18:34N 59°15' E 010°37'1616.4
2017-Feb-14 17:33N 59°31' E 010°35'1313.4
2017-Feb-14 16:34N 59°45' E 010°33'1111.2
2017-Feb-14 15:33N 59°54' E 010°45'0 0.0
2017-Feb-14 14:33N 59°54' E 010°45'0 0.0
2017-Feb-14 13:33N 59°54' E 010°45'0 0.0
2017-Feb-14 12:33N 59°54' E 010°45'0 0.0
2017-Feb-14 11:33N 59°54' E 010°45'0 0.0
2017-Feb-14 10:33N 59°54' E 010°45'0 0.0
2017-Feb-14 09:33N 59°54' E 010°45'0 0.0
2017-Feb-14 08:33N 59°54' E 010°45'1211.7
2017-Feb-14 07:34N 59°44' E 010°35'1312.9
2017-Feb-14 06:33N 59°31' E 010°36'1615.9
2017-Feb-14 05:34N 59°15' E 010°38'1616.5
2017-Feb-14 04:33N 58°59' E 010°36'1716.5
2017-Feb-14 03:33N 58°42' E 010°35'1716.7
2017-Feb-14 02:33N 58°26' E 010°41'1716.9
2017-Feb-14 01:33N 58°10' E 010°53'1716.8
2017-Feb-14 00:33N 57°54' E 011°03'1716.5
2017-Feb-13 23:33N 57°39' E 011°14'1716.8
2017-Feb-13 22:33N 57°24' E 011°29'1716.8
2017-Feb-13 21:33N 57°08' E 011°40'1616.1
2017-Feb-13 20:33N 56°54' E 011°53'1615.8
2017-Feb-13 19:33N 56°39' E 012°06'1615.9
2017-Feb-13 18:33N 56°25' E 012°17'1616.3
2017-Feb-13 17:33N 56°10' E 012°29'1616.4
2017-Feb-13 16:33N 55°56' E 012°44'1414.2
2017-Feb-13 15:34N 55°42' E 012°36'0 0.4
2017-Feb-13 14:31N 55°42' E 012°36'0 0.0
2017-Feb-13 13:31N 55°42' E 012°36'0 0.0
2017-Feb-13 12:31N 55°42' E 012°36'0 0.0
2017-Feb-13 11:31N 55°42' E 012°36'0 0.0
2017-Feb-13 10:31N 55°42' E 012°36'0 0.0
2017-Feb-13 09:31N 55°42' E 012°36'0 0.1
2017-Feb-13 08:33N 55°42' E 012°36'1110.6
2017-Feb-13 07:34N 55°53' E 012°40'1413.5
2017-Feb-13 06:33N 56°06' E 012°34'1414.3
2017-Feb-13 05:34N 56°19' E 012°23'6315.8
2017-Feb-13 01:34N 57°19' E 011°47'1616.2
2017-Feb-13 00:33N 57°33' E 011°32'1717.1
2017-Feb-12 23:33N 57°49' E 011°21'1717.1
2017-Feb-12 22:33N 58°05' E 011°10'1717.0
2017-Feb-12 21:33N 58°21' E 010°59'1717.1
2017-Feb-12 20:34N 58°37' E 010°48'1717.0
2017-Feb-12 19:33N 58°54' E 010°42'1717.0
2017-Feb-12 18:33N 59°11' E 010°38'1616.4
2017-Feb-12 17:33N 59°27' E 010°33'1414.3
2017-Feb-12 16:33N 59°41' E 010°36'1313.2
2017-Feb-12 15:33N 59°54' E 010°43'1 0.7
2017-Feb-12 14:32N 59°54' E 010°45'0 0.0
2017-Feb-12 13:32N 59°54' E 010°45'0 0.0
2017-Feb-12 12:32N 59°54' E 010°45'0 0.0
2017-Feb-12 11:32N 59°54' E 010°45'0 0.0
2017-Feb-12 10:29N 59°54' E 010°45'0 0.0
2017-Feb-12 09:32N 59°54' E 010°45'0 0.0
2017-Feb-12 08:32N 59°54' E 010°45'1010.8
2017-Feb-12 07:33N 59°45' E 010°34'1313.4
2017-Feb-12 06:34N 59°32' E 010°36'1514.8
2017-Feb-12 05:34N 59°17' E 010°37'1616.2
2017-Feb-12 04:33N 59°01' E 010°42'  

Dump ship's entire track history